createdAt,value
2022-08-07T00:06:34.043Z,23.57
2022-08-07T00:09:16.660Z,23.54
2022-08-07T00:11:58.960Z,23.50
2022-08-07T00:14:39.118Z,23.47
2022-08-07T00:17:17.741Z,23.45
2022-08-07T00:20:01.358Z,23.42
2022-08-07T00:33:22.127Z,23.24
2022-08-07T00:35:57.487Z,23.20
2022-08-07T00:38:33.192Z,23.17
2022-08-07T00:41:09.882Z,23.14
2022-08-07T00:43:59.021Z,23.11
2022-08-07T00:46:34.090Z,23.09
2022-08-07T00:49:10.136Z,23.08
2022-08-07T00:59:55.068Z,23.00
2022-08-07T01:02:35.116Z,22.95
2022-08-07T01:05:19.268Z,22.94
2022-08-07T01:08:02.927Z,22.89
2022-08-07T01:10:36.807Z,22.86
2022-08-07T01:13:11.127Z,22.83
2022-08-07T01:26:44.110Z,22.70
2022-08-07T01:29:31.398Z,22.64
2022-08-07T01:32:15.094Z,22.61
2022-08-07T01:34:51.635Z,22.59
2022-08-07T01:37:26.233Z,22.57
2022-08-07T01:40:08.252Z,22.54
2022-08-07T01:54:08.924Z,22.40
2022-08-07T01:56:50.116Z,22.37
2022-08-07T01:59:32.275Z,22.33
2022-08-07T02:02:19.076Z,22.29
2022-08-07T02:05:43.470Z,22.29
2022-08-07T02:08:36.483Z,22.29
2022-08-07T02:21:56.604Z,22.09
2022-08-07T02:24:35.031Z,22.06
2022-08-07T02:27:25.175Z,22.04
2022-08-07T02:30:07.303Z,21.97
2022-08-07T02:33:03.961Z,21.96
2022-08-07T02:46:58.130Z,21.86
2022-08-07T02:49:58.019Z,21.81
2022-08-07T02:52:47.905Z,21.76
2022-08-07T02:55:28.383Z,21.74
2022-08-07T02:58:27.461Z,21.76
2022-08-07T03:15:07.894Z,21.58
2022-08-07T03:17:53.253Z,21.58
2022-08-07T03:20:37.680Z,21.57
2022-08-07T03:23:19.516Z,21.54
2022-08-07T03:25:59.805Z,21.51
2022-08-07T03:28:46.168Z,21.48
2022-08-07T03:42:13.181Z,21.37
2022-08-07T03:44:57.687Z,21.35
2022-08-07T03:47:48.065Z,21.34
2022-08-07T03:50:29.188Z,21.33
2022-08-07T03:53:11.156Z,21.29
2022-08-07T04:07:07.637Z,21.19
2022-08-07T04:09:54.979Z,21.10
2022-08-07T04:12:39.700Z,21.16
2022-08-07T04:15:16.557Z,21.14
2022-08-07T04:18:57.148Z,21.09
2022-08-07T04:20:54.365Z,21.06
2022-08-07T04:23:43.444Z,21.04
2022-08-07T04:34:00.080Z,20.98
2022-08-07T04:36:41.141Z,20.97
2022-08-07T04:39:15.112Z,20.95
2022-08-07T04:41:58.140Z,20.92
2022-08-07T04:44:34.919Z,20.87
2022-08-07T04:47:57.095Z,20.84
2022-08-07T05:01:01.197Z,20.86
2022-08-07T05:04:06.760Z,20.84
2022-08-07T05:07:09.617Z,20.84
2022-08-07T05:10:02.548Z,20.84
2022-08-07T05:13:01.398Z,20.86
2022-08-07T05:29:52.190Z,21.15
2022-08-07T05:32:36.197Z,21.22
2022-08-07T05:35:12.741Z,21.33
2022-08-07T05:38:08.859Z,21.44
2022-08-07T05:40:51.342Z,21.51
2022-08-07T05:43:49.851Z,21.55
2022-08-07T05:54:30.809Z,21.76
2022-08-07T05:57:17.149Z,21.82
2022-08-07T05:59:55.748Z,21.87
2022-08-07T06:02:48.080Z,21.96
2022-08-07T06:05:28.425Z,22.03
2022-08-07T06:08:30.861Z,22.15
2022-08-07T06:22:11.638Z,22.63
2022-08-07T06:24:55.577Z,22.74
2022-08-07T06:28:00.636Z,22.81
2022-08-07T06:30:37.455Z,22.89
2022-08-07T06:33:27.110Z,22.98
2022-08-07T06:50:07.067Z,23.65
2022-08-07T06:53:00.119Z,23.75
2022-08-07T06:55:48.011Z,23.87
2022-08-07T07:00:10.398Z,23.94
2022-08-07T07:01:50.624Z,24.01
2022-08-07T07:04:33.875Z,24.06
2022-08-07T07:14:35.029Z,24.44
2022-08-07T07:17:38.858Z,24.55
2022-08-07T07:20:20.859Z,24.66
2022-08-07T07:24:09.878Z,24.69
2022-08-07T07:26:34.226Z,24.74
2022-08-07T07:29:56.170Z,24.79
2022-08-07T07:42:47.154Z,24.79
2022-08-07T07:46:39.904Z,24.77
2022-08-07T07:48:36.030Z,24.77
2022-08-07T07:51:15.556Z,24.73
2022-08-07T07:54:04.102Z,24.71
2022-08-07T08:08:01.892Z,24.57
2022-08-07T08:10:38.630Z,24.55
2022-08-07T08:13:22.120Z,24.52
2022-08-07T08:16:01.207Z,24.49
2022-08-07T08:18:45.091Z,24.47
2022-08-07T08:21:25.900Z,24.44
2022-08-07T08:24:36.442Z,24.39
2022-08-07T08:34:48.127Z,24.30
2022-08-07T08:38:01.286Z,24.27
2022-08-07T08:40:37.499Z,24.18
2022-08-07T08:43:31.964Z,24.17
2022-08-07T08:46:26.699Z,24.22
2022-08-07T08:49:19.118Z,24.27
2022-08-07T09:02:57.713Z,24.52
2022-08-07T09:05:43.207Z,24.49
2022-08-07T09:08:39.276Z,24.44
2022-08-07T09:11:43.707Z,24.38
2022-08-07T09:14:39.098Z,24.31
2022-08-07T09:30:04.597Z,24.72
2022-08-07T09:31:49.259Z,24.80
2022-08-07T09:34:53.949Z,24.76
2022-08-07T09:37:48.392Z,24.76
2022-08-07T09:40:48.148Z,24.81
2022-08-07T09:44:05.679Z,24.89
2022-08-07T09:57:28.283Z,25.29
2022-08-07T10:00:18.803Z,25.36
2022-08-07T10:04:06.580Z,25.43
2022-08-07T10:06:56.985Z,25.51
2022-08-07T10:10:00.137Z,25.61
2022-08-07T10:24:05.881Z,25.82
2022-08-07T10:27:00.536Z,25.91
2022-08-07T10:29:59.604Z,25.98
2022-08-07T10:33:17.100Z,26.05
2022-08-07T10:48:50.080Z,26.41
2022-08-07T10:52:01.710Z,26.50
2022-08-07T10:55:00.717Z,26.61
2022-08-07T10:57:57.148Z,26.70
2022-08-07T11:00:50.579Z,26.75
2022-08-07T11:04:01.299Z,26.73
2022-08-07T11:17:45.985Z,26.90
2022-08-07T11:20:36.540Z,26.95
2022-08-07T11:23:36.617Z,27.01
2022-08-07T11:26:23.387Z,27.05
2022-08-07T11:29:41.053Z,27.10
2022-08-07T11:43:07.103Z,27.23
2022-08-07T11:46:11.287Z,27.29
2022-08-07T11:49:50.151Z,27.33
2022-08-07T11:52:39.619Z,27.34
2022-08-07T12:09:23.350Z,27.63
2022-08-07T12:12:10.234Z,27.65
2022-08-07T12:15:17.384Z,27.70
2022-08-07T12:18:13.898Z,27.85
2022-08-07T12:21:21.238Z,27.86
2022-08-07T12:24:37.854Z,27.85
2022-08-07T12:38:10.261Z,27.97
2022-08-07T12:40:47.335Z,27.97
2022-08-07T12:44:03.011Z,28.00
2022-08-07T12:46:53.140Z,28.05
2022-08-07T12:49:48.840Z,28.06
2022-08-07T13:03:23.031Z,28.36
2022-08-07T13:07:00.095Z,28.37
2022-08-07T13:10:20.079Z,28.38
2022-08-07T13:13:48.473Z,28.38
2022-08-07T13:16:36.713Z,28.37
2022-08-07T13:19:46.175Z,28.37
2022-08-07T13:29:47.869Z,28.47
2022-08-07T13:32:37.535Z,28.49
2022-08-07T13:35:24.883Z,28.48
2022-08-07T13:38:42.041Z,28.52
2022-08-07T13:41:34.298Z,28.58
2022-08-07T13:44:18.119Z,28.64
2022-08-07T13:57:40.354Z,28.77
2022-08-07T14:00:54.249Z,28.81
2022-08-07T14:04:06.682Z,28.90
2022-08-07T14:06:36.759Z,28.99
2022-08-07T14:10:02.928Z,29.08
2022-08-07T14:23:12.147Z,29.18
2022-08-07T14:25:55.507Z,29.20
2022-08-07T14:31:43.346Z,29.15
2022-08-07T14:34:46.390Z,29.23
2022-08-07T14:37:39.267Z,29.27
2022-08-07T14:50:37.844Z,29.42
2022-08-07T14:56:30.037Z,29.45
2022-08-07T15:00:05.540Z,29.47
2022-08-07T15:02:33.111Z,29.66
2022-08-07T15:05:23.555Z,29.83
2022-08-07T15:16:01.117Z,29.70
2022-08-07T15:18:50.182Z,29.57
2022-08-07T15:21:59.519Z,29.52
2022-08-07T15:25:15.649Z,29.52
2022-08-07T15:44:30.761Z,29.57
2022-08-07T15:47:16.824Z,29.66
2022-08-07T15:50:03.788Z,29.72
2022-08-07T15:52:41.060Z,29.71
2022-08-07T15:55:23.167Z,29.71
2022-08-07T15:58:21.072Z,29.70
2022-08-07T16:12:01.107Z,29.88
2022-08-07T16:15:57.704Z,29.93
2022-08-07T16:18:49.745Z,29.97
2022-08-07T16:22:01.751Z,29.99
2022-08-07T16:24:39.760Z,30.04
2022-08-07T16:38:13.140Z,30.32
2022-08-07T16:41:29.159Z,30.40
2022-08-07T16:46:10.907Z,30.51
2022-08-07T16:50:26.691Z,30.69
2022-08-07T17:03:58.318Z,31.91
2022-08-07T17:06:44.759Z,32.45
2022-08-07T17:10:06.313Z,32.93
2022-08-07T17:12:47.545Z,33.39
2022-08-07T17:15:44.144Z,33.76
2022-08-07T17:18:34.108Z,34.14
2022-08-07T17:32:02.485Z,35.12
2022-08-07T17:35:33.165Z,35.17
2022-08-07T17:38:05.522Z,35.12
2022-08-07T17:42:00.987Z,35.12
2022-08-07T17:44:14.734Z,35.06
2022-08-07T17:57:56.544Z,32.73
2022-08-07T18:00:48.684Z,32.05
2022-08-07T18:04:04.250Z,31.47
2022-08-07T18:06:44.148Z,30.99
2022-08-07T18:10:04.968Z,30.63
2022-08-07T18:23:43.446Z,29.59
2022-08-07T18:26:43.159Z,29.39
2022-08-07T18:30:05.282Z,29.27
2022-08-07T18:32:53.129Z,29.15
2022-08-07T18:35:52.072Z,29.04
2022-08-07T18:40:06.406Z,28.93
2022-08-07T18:50:30.416Z,28.62
2022-08-07T18:53:17.958Z,28.50
2022-08-07T18:56:14.312Z,28.39
2022-08-07T19:02:19.117Z,28.35
2022-08-07T19:05:15.352Z,28.29
2022-08-07T19:18:44.883Z,28.04
2022-08-07T19:21:47.611Z,27.97
2022-08-07T19:24:47.982Z,27.93
2022-08-07T19:28:58.737Z,27.88
2022-08-07T19:44:21.176Z,27.65
2022-08-07T19:47:10.879Z,27.61
2022-08-07T19:50:03.156Z,27.58
2022-08-07T19:52:59.151Z,27.51
2022-08-07T19:55:57.496Z,27.46
2022-08-07T19:58:37.942Z,27.42
2022-08-07T20:12:21.976Z,27.23
2022-08-07T20:14:58.431Z,27.17
2022-08-07T20:17:35.892Z,27.13
2022-08-07T20:20:27.160Z,27.10
2022-08-07T20:23:23.364Z,27.07
2022-08-07T20:37:08.140Z,26.88
2022-08-07T20:40:02.248Z,26.82
2022-08-07T20:42:45.002Z,26.79
2022-08-07T20:46:24.164Z,26.76
2022-08-07T20:48:29.963Z,26.71
2022-08-07T21:04:57.620Z,26.51
2022-08-07T21:07:33.882Z,26.49
2022-08-07T21:10:29.757Z,26.43
2022-08-07T21:13:13.660Z,26.41
2022-08-07T21:16:02.169Z,26.38
2022-08-07T21:18:50.565Z,26.38
2022-08-07T21:32:47.887Z,26.30
2022-08-07T21:35:11.407Z,26.27
2022-08-07T21:38:00.165Z,26.22
2022-08-07T21:40:49.497Z,26.19
2022-08-07T21:43:56.364Z,26.17
2022-08-07T21:57:39.709Z,26.04
2022-08-07T22:00:30.977Z,26.02
2022-08-07T22:03:17.391Z,26.00
2022-08-07T22:06:30.163Z,25.97
2022-08-07T22:09:10.951Z,25.95
2022-08-07T22:25:46.149Z,25.70
2022-08-07T22:28:37.320Z,25.69
2022-08-07T22:31:45.228Z,25.69
2022-08-07T22:34:29.095Z,25.67
2022-08-07T22:38:03.064Z,25.66
2022-08-07T22:51:52.047Z,25.51
2022-08-07T22:54:56.902Z,25.49
2022-08-07T22:58:04.196Z,25.50
2022-08-07T23:01:11.535Z,25.46
2022-08-07T23:04:30.154Z,25.43
2022-08-07T23:18:02.186Z,25.27
2022-08-07T23:21:02.891Z,25.25
2022-08-07T23:24:28.009Z,25.23
2022-08-07T23:28:21.130Z,25.19
2022-08-07T23:31:06.598Z,25.14
2022-08-07T23:34:37.944Z,25.09
2022-08-07T23:45:07.138Z,24.95
2022-08-07T23:48:24.984Z,24.88
2022-08-07T23:53:05.675Z,24.83
2022-08-07T23:54:36.072Z,24.78
2022-08-07T23:57:37.178Z,24.72
